sensor_id;sensor_type;location;lat;lon;timestamp;temperature;humidity
24678;DHT22;12800;53.094;8.778;2023-08-06T00:00:06;16.40;89.30
24678;DHT22;12800;53.094;8.778;2023-08-06T00:02:33;16.40;89.40
24678;DHT22;12800;53.094;8.778;2023-08-06T00:04:59;16.40;89.30
24678;DHT22;12800;53.094;8.778;2023-08-06T00:07:25;16.40;89.40
24678;DHT22;12800;53.094;8.778;2023-08-06T00:09:50;16.30;89.40
24678;DHT22;12800;53.094;8.778;2023-08-06T00:12:16;16.40;89.50
24678;DHT22;12800;53.094;8.778;2023-08-06T00:14:42;16.30;89.50
24678;DHT22;12800;53.094;8.778;2023-08-06T00:17:08;16.40;89.60
24678;DHT22;12800;53.094;8.778;2023-08-06T00:19:33;16.30;89.50
24678;DHT22;12800;53.094;8.778;2023-08-06T00:21:59;16.30;89.50
24678;DHT22;12800;53.094;8.778;2023-08-06T00:24:25;16.30;89.50
24678;DHT22;12800;53.094;8.778;2023-08-06T00:26:50;16.30;89.60
24678;DHT22;12800;53.094;8.778;2023-08-06T00:29:16;16.30;89.60
24678;DHT22;12800;53.094;8.778;2023-08-06T00:31:41;16.30;89.80
24678;DHT22;12800;53.094;8.778;2023-08-06T00:34:07;16.30;90.00
24678;DHT22;12800;53.094;8.778;2023-08-06T00:36:32;16.30;89.80
24678;DHT22;12800;53.094;8.778;2023-08-06T00:38:58;16.30;89.80
24678;DHT22;12800;53.094;8.778;2023-08-06T00:41:24;16.30;89.80
24678;DHT22;12800;53.094;8.778;2023-08-06T00:43:49;16.30;89.90
24678;DHT22;12800;53.094;8.778;2023-08-06T00:46:15;16.30;89.90
24678;DHT22;12800;53.094;8.778;2023-08-06T00:48:41;16.30;89.80
24678;DHT22;12800;53.094;8.778;2023-08-06T00:51:12;16.30;89.70
24678;DHT22;12800;53.094;8.778;2023-08-06T00:53:38;16.30;89.80
24678;DHT22;12800;53.094;8.778;2023-08-06T00:56:05;16.30;89.80
24678;DHT22;12800;53.094;8.778;2023-08-06T00:58:32;16.30;89.90
24678;DHT22;12800;53.094;8.778;2023-08-06T01:00:57;16.30;90.40
24678;DHT22;12800;53.094;8.778;2023-08-06T01:03:23;16.30;90.00
24678;DHT22;12800;53.094;8.778;2023-08-06T01:05:49;16.30;90.10
24678;DHT22;12800;53.094;8.778;2023-08-06T01:08:32;16.30;90.10
24678;DHT22;12800;53.094;8.778;2023-08-06T01:14:02;16.30;90.10
24678;DHT22;12800;53.094;8.778;2023-08-06T01:16:32;16.30;90.10
24678;DHT22;12800;53.094;8.778;2023-08-06T01:18:58;16.30;90.10
24678;DHT22;12800;53.094;8.778;2023-08-06T01:21:24;16.30;90.20
24678;DHT22;12800;53.094;8.778;2023-08-06T01:23:50;16.30;90.20
24678;DHT22;12800;53.094;8.778;2023-08-06T01:26:37;16.30;90.10
24678;DHT22;12800;53.094;8.778;2023-08-06T01:29:25;16.30;90.20
24678;DHT22;12800;53.094;8.778;2023-08-06T01:31:55;16.30;90.30
24678;DHT22;12800;53.094;8.778;2023-08-06T01:34:24;16.30;90.30
24678;DHT22;12800;53.094;8.778;2023-08-06T01:36:51;16.30;90.30
24678;DHT22;12800;53.094;8.778;2023-08-06T01:39:17;16.30;90.30
24678;DHT22;12800;53.094;8.778;2023-08-06T01:41:49;16.30;90.30
24678;DHT22;12800;53.094;8.778;2023-08-06T01:44:15;16.30;90.30
24678;DHT22;12800;53.094;8.778;2023-08-06T01:46:41;16.30;90.30
24678;DHT22;12800;53.094;8.778;2023-08-06T01:49:07;16.30;90.20
24678;DHT22;12800;53.094;8.778;2023-08-06T01:51:33;16.30;90.20
24678;DHT22;12800;53.094;8.778;2023-08-06T01:53:58;16.30;90.30
24678;DHT22;12800;53.094;8.778;2023-08-06T01:56:24;16.30;90.30
24678;DHT22;12800;53.094;8.778;2023-08-06T01:58:50;16.30;90.30
24678;DHT22;12800;53.094;8.778;2023-08-06T02:01:15;16.30;90.30
24678;DHT22;12800;53.094;8.778;2023-08-06T02:03:41;16.30;90.30
24678;DHT22;12800;53.094;8.778;2023-08-06T02:06:07;16.30;90.30
24678;DHT22;12800;53.094;8.778;2023-08-06T02:08:32;16.30;90.30
24678;DHT22;12800;53.094;8.778;2023-08-06T02:10:58;16.30;90.20
24678;DHT22;12800;53.094;8.778;2023-08-06T02:13:24;16.30;90.30
24678;DHT22;12800;53.094;8.778;2023-08-06T02:15:50;16.30;90.30
24678;DHT22;12800;53.094;8.778;2023-08-06T02:18:16;16.30;90.40
24678;DHT22;12800;53.094;8.778;2023-08-06T02:20:42;16.30;90.30
24678;DHT22;12800;53.094;8.778;2023-08-06T02:23:08;16.30;90.30
24678;DHT22;12800;53.094;8.778;2023-08-06T02:25:34;16.30;90.40
24678;DHT22;12800;53.094;8.778;2023-08-06T02:28:00;16.30;90.30
24678;DHT22;12800;53.094;8.778;2023-08-06T02:30:25;16.30;90.30
24678;DHT22;12800;53.094;8.778;2023-08-06T02:32:51;16.20;90.30
24678;DHT22;12800;53.094;8.778;2023-08-06T02:35:17;16.20;90.40
24678;DHT22;12800;53.094;8.778;2023-08-06T02:37:42;16.20;90.40
24678;DHT22;12800;53.094;8.778;2023-08-06T02:40:08;16.20;90.50
24678;DHT22;12800;53.094;8.778;2023-08-06T02:42:34;16.20;90.50
24678;DHT22;12800;53.094;8.778;2023-08-06T02:44:59;16.20;90.50
24678;DHT22;12800;53.094;8.778;2023-08-06T02:47:25;16.20;90.50
24678;DHT22;12800;53.094;8.778;2023-08-06T02:49:50;16.20;90.60
24678;DHT22;12800;53.094;8.778;2023-08-06T02:52:16;16.20;90.60
24678;DHT22;12800;53.094;8.778;2023-08-06T02:54:43;16.20;90.60
24678;DHT22;12800;53.094;8.778;2023-08-06T02:57:08;16.20;90.70
24678;DHT22;12800;53.094;8.778;2023-08-06T02:59:34;16.30;90.60
24678;DHT22;12800;53.094;8.778;2023-08-06T03:02:00;16.30;90.60
24678;DHT22;12800;53.094;8.778;2023-08-06T03:04:25;16.30;90.70
24678;DHT22;12800;53.094;8.778;2023-08-06T03:06:51;16.30;90.70
24678;DHT22;12800;53.094;8.778;2023-08-06T03:09:17;16.30;90.70
24678;DHT22;12800;53.094;8.778;2023-08-06T03:11:43;16.30;90.60
24678;DHT22;12800;53.094;8.778;2023-08-06T03:14:08;16.30;90.60
24678;DHT22;12800;53.094;8.778;2023-08-06T03:16:34;16.30;90.50
24678;DHT22;12800;53.094;8.778;2023-08-06T03:19:00;16.20;90.50
24678;DHT22;12800;53.094;8.778;2023-08-06T03:21:26;16.20;90.50
24678;DHT22;12800;53.094;8.778;2023-08-06T03:23:52;16.20;90.50
24678;DHT22;12800;53.094;8.778;2023-08-06T03:26:17;16.10;90.50
24678;DHT22;12800;53.094;8.778;2023-08-06T03:28:43;16.10;90.60
24678;DHT22;12800;53.094;8.778;2023-08-06T03:31:09;16.10;90.70
24678;DHT22;12800;53.094;8.778;2023-08-06T03:33:34;16.10;90.70
24678;DHT22;12800;53.094;8.778;2023-08-06T03:36:00;16.10;90.60
24678;DHT22;12800;53.094;8.778;2023-08-06T03:38:26;16.10;90.70
24678;DHT22;12800;53.094;8.778;2023-08-06T03:40:53;16.10;90.70
24678;DHT22;12800;53.094;8.778;2023-08-06T03:43:19;16.00;90.70
24678;DHT22;12800;53.094;8.778;2023-08-06T03:45:44;16.10;90.80
24678;DHT22;12800;53.094;8.778;2023-08-06T03:48:10;16.10;90.80
24678;DHT22;12800;53.094;8.778;2023-08-06T03:50:36;16.10;91.20
24678;DHT22;12800;53.094;8.778;2023-08-06T03:53:02;16.10;90.80
24678;DHT22;12800;53.094;8.778;2023-08-06T03:55:28;16.10;90.90
24678;DHT22;12800;53.094;8.778;2023-08-06T03:57:53;16.10;90.90
24678;DHT22;12800;53.094;8.778;2023-08-06T04:00:19;16.10;90.80
24678;DHT22;12800;53.094;8.778;2023-08-06T04:02:45;16.10;90.80
24678;DHT22;12800;53.094;8.778;2023-08-06T04:05:10;16.10;90.80
24678;DHT22;12800;53.094;8.778;2023-08-06T04:07:36;16.10;90.90
24678;DHT22;12800;53.094;8.778;2023-08-06T04:10:03;16.10;90.90
24678;DHT22;12800;53.094;8.778;2023-08-06T04:12:29;16.10;90.90
24678;DHT22;12800;53.094;8.778;2023-08-06T04:14:58;16.10;90.90
24678;DHT22;12800;53.094;8.778;2023-08-06T04:17:24;16.20;90.90
24678;DHT22;12800;53.094;8.778;2023-08-06T04:19:52;16.20;90.90
24678;DHT22;12800;53.094;8.778;2023-08-06T04:22:18;16.20;90.90
24678;DHT22;12800;53.094;8.778;2023-08-06T04:24:44;16.20;90.90
24678;DHT22;12800;53.094;8.778;2023-08-06T04:27:10;16.20;90.90
24678;DHT22;12800;53.094;8.778;2023-08-06T04:29:37;16.20;90.90
24678;DHT22;12800;53.094;8.778;2023-08-06T04:32:08;16.20;90.90
24678;DHT22;12800;53.094;8.778;2023-08-06T04:34:34;16.20;90.80
24678;DHT22;12800;53.094;8.778;2023-08-06T04:37:00;16.20;90.80
24678;DHT22;12800;53.094;8.778;2023-08-06T04:39:26;16.20;90.80
24678;DHT22;12800;53.094;8.778;2023-08-06T04:41:51;16.20;90.80
24678;DHT22;12800;53.094;8.778;2023-08-06T04:44:17;16.20;90.90
24678;DHT22;12800;53.094;8.778;2023-08-06T04:46:42;16.20;91.00
24678;DHT22;12800;53.094;8.778;2023-08-06T04:49:08;16.20;91.00
24678;DHT22;12800;53.094;8.778;2023-08-06T04:51:34;16.20;90.90
24678;DHT22;12800;53.094;8.778;2023-08-06T04:53:59;16.20;90.80
24678;DHT22;12800;53.094;8.778;2023-08-06T04:56:25;16.20;90.80
24678;DHT22;12800;53.094;8.778;2023-08-06T04:58:50;16.20;90.80
24678;DHT22;12800;53.094;8.778;2023-08-06T05:01:16;16.20;90.90
24678;DHT22;12800;53.094;8.778;2023-08-06T05:03:42;16.20;90.80
24678;DHT22;12800;53.094;8.778;2023-08-06T05:06:07;16.20;90.90
24678;DHT22;12800;53.094;8.778;2023-08-06T05:08:33;16.20;90.90
24678;DHT22;12800;53.094;8.778;2023-08-06T05:10:59;16.20;90.90
24678;DHT22;12800;53.094;8.778;2023-08-06T05:13:24;16.20;90.90
24678;DHT22;12800;53.094;8.778;2023-08-06T05:15:51;16.20;90.90
24678;DHT22;12800;53.094;8.778;2023-08-06T05:18:18;16.20;90.90
24678;DHT22;12800;53.094;8.778;2023-08-06T05:20:45;16.20;90.90
24678;DHT22;12800;53.094;8.778;2023-08-06T05:23:10;16.20;90.90
24678;DHT22;12800;53.094;8.778;2023-08-06T05:25:36;16.30;91.00
24678;DHT22;12800;53.094;8.778;2023-08-06T05:28:02;16.30;91.00
24678;DHT22;12800;53.094;8.778;2023-08-06T05:30:28;16.30;91.00
24678;DHT22;12800;53.094;8.778;2023-08-06T05:32:54;16.30;91.00
24678;DHT22;12800;53.094;8.778;2023-08-06T05:35:21;16.40;91.00
24678;DHT22;12800;53.094;8.778;2023-08-06T05:37:47;16.40;90.90
24678;DHT22;12800;53.094;8.778;2023-08-06T05:40:13;16.40;90.90
24678;DHT22;12800;53.094;8.778;2023-08-06T05:42:39;16.50;90.90
24678;DHT22;12800;53.094;8.778;2023-08-06T05:45:05;16.50;90.90
24678;DHT22;12800;53.094;8.778;2023-08-06T05:47:31;16.60;90.80
24678;DHT22;12800;53.094;8.778;2023-08-06T05:49:57;16.60;90.80
24678;DHT22;12800;53.094;8.778;2023-08-06T05:52:22;16.70;90.70
24678;DHT22;12800;53.094;8.778;2023-08-06T05:54:48;16.70;90.70
24678;DHT22;12800;53.094;8.778;2023-08-06T05:57:13;16.70;90.70
24678;DHT22;12800;53.094;8.778;2023-08-06T05:59:40;16.70;90.60
24678;DHT22;12800;53.094;8.778;2023-08-06T06:02:06;16.80;90.60
24678;DHT22;12800;53.094;8.778;2023-08-06T06:04:32;16.80;90.50
24678;DHT22;12800;53.094;8.778;2023-08-06T06:06:57;16.80;90.50
24678;DHT22;12800;53.094;8.778;2023-08-06T06:09:23;16.90;90.40
24678;DHT22;12800;53.094;8.778;2023-08-06T06:11:48;16.90;90.30
24678;DHT22;12800;53.094;8.778;2023-08-06T06:14:16;17.00;90.40
24678;DHT22;12800;53.094;8.778;2023-08-06T06:16:41;17.00;90.30
24678;DHT22;12800;53.094;8.778;2023-08-06T06:19:07;17.10;90.20
24678;DHT22;12800;53.094;8.778;2023-08-06T06:21:33;17.10;90.20
24678;DHT22;12800;53.094;8.778;2023-08-06T06:23:58;17.10;90.20
24678;DHT22;12800;53.094;8.778;2023-08-06T06:26:24;17.10;90.10
24678;DHT22;12800;53.094;8.778;2023-08-06T06:28:50;17.10;90.10
24678;DHT22;12800;53.094;8.778;2023-08-06T06:31:15;17.10;90.50
24678;DHT22;12800;53.094;8.778;2023-08-06T06:33:41;17.20;90.20
24678;DHT22;12800;53.094;8.778;2023-08-06T06:36:06;17.30;90.00
24678;DHT22;12800;53.094;8.778;2023-08-06T06:38:33;17.30;90.00
24678;DHT22;12800;53.094;8.778;2023-08-06T06:40:59;17.30;89.90
24678;DHT22;12800;53.094;8.778;2023-08-06T06:43:25;17.30;89.60
24678;DHT22;12800;53.094;8.778;2023-08-06T06:45:56;17.30;89.60
24678;DHT22;12800;53.094;8.778;2023-08-06T06:48:23;17.30;89.60
24678;DHT22;12800;53.094;8.778;2023-08-06T06:50:49;17.40;90.10
24678;DHT22;12800;53.094;8.778;2023-08-06T06:53:15;17.40;89.30
24678;DHT22;12800;53.094;8.778;2023-08-06T06:55:40;17.40;88.60
24678;DHT22;12800;53.094;8.778;2023-08-06T06:58:06;17.40;88.50
24678;DHT22;12800;53.094;8.778;2023-08-06T07:00:31;17.40;88.70
24678;DHT22;12800;53.094;8.778;2023-08-06T07:02:57;17.50;88.90
24678;DHT22;12800;53.094;8.778;2023-08-06T07:05:23;17.50;88.20
24678;DHT22;12800;53.094;8.778;2023-08-06T07:07:48;17.50;88.10
24678;DHT22;12800;53.094;8.778;2023-08-06T07:10:14;17.50;88.00
24678;DHT22;12800;53.094;8.778;2023-08-06T07:12:40;17.60;87.90
24678;DHT22;12800;53.094;8.778;2023-08-06T07:15:08;17.60;87.80
24678;DHT22;12800;53.094;8.778;2023-08-06T07:17:34;17.60;87.90
24678;DHT22;12800;53.094;8.778;2023-08-06T07:20:00;17.70;88.20
24678;DHT22;12800;53.094;8.778;2023-08-06T07:22:25;17.70;88.00
24678;DHT22;12800;53.094;8.778;2023-08-06T07:24:51;17.80;87.80
24678;DHT22;12800;53.094;8.778;2023-08-06T07:27:17;17.90;87.40
24678;DHT22;12800;53.094;8.778;2023-08-06T07:29:42;17.90;87.30
24678;DHT22;12800;53.094;8.778;2023-08-06T07:32:08;17.90;87.10
24678;DHT22;12800;53.094;8.778;2023-08-06T07:34:34;18.00;86.90
24678;DHT22;12800;53.094;8.778;2023-08-06T07:36:59;18.10;87.00
24678;DHT22;12800;53.094;8.778;2023-08-06T07:39:25;18.20;86.80
24678;DHT22;12800;53.094;8.778;2023-08-06T07:41:51;18.20;86.30
24678;DHT22;12800;53.094;8.778;2023-08-06T07:44:17;18.20;85.70
24678;DHT22;12800;53.094;8.778;2023-08-06T07:46:42;18.30;85.80
24678;DHT22;12800;53.094;8.778;2023-08-06T07:49:09;18.30;85.60
24678;DHT22;12800;53.094;8.778;2023-08-06T07:51:36;18.30;85.10
24678;DHT22;12800;53.094;8.778;2023-08-06T07:54:02;18.30;85.00
24678;DHT22;12800;53.094;8.778;2023-08-06T07:56:28;18.30;84.80
24678;DHT22;12800;53.094;8.778;2023-08-06T07:58:54;18.30;84.80
24678;DHT22;12800;53.094;8.778;2023-08-06T08:01:20;18.30;85.70
24678;DHT22;12800;53.094;8.778;2023-08-06T08:03:45;18.20;84.50
24678;DHT22;12800;53.094;8.778;2023-08-06T08:06:11;18.20;84.40
24678;DHT22;12800;53.094;8.778;2023-08-06T08:08:36;18.20;84.70
24678;DHT22;12800;53.094;8.778;2023-08-06T08:11:04;18.20;84.80
24678;DHT22;12800;53.094;8.778;2023-08-06T08:13:30;18.30;85.00
24678;DHT22;12800;53.094;8.778;2023-08-06T08:16:00;18.40;85.00
24678;DHT22;12800;53.094;8.778;2023-08-06T08:18:26;18.50;84.90
24678;DHT22;12800;53.094;8.778;2023-08-06T08:20:51;18.60;84.30
24678;DHT22;12800;53.094;8.778;2023-08-06T08:23:17;18.70;84.10
24678;DHT22;12800;53.094;8.778;2023-08-06T08:25:43;18.80;84.00
24678;DHT22;12800;53.094;8.778;2023-08-06T08:28:08;18.90;84.00
24678;DHT22;12800;53.094;8.778;2023-08-06T08:30:34;19.00;83.60
24678;DHT22;12800;53.094;8.778;2023-08-06T08:33:00;19.10;83.60
24678;DHT22;12800;53.094;8.778;2023-08-06T08:35:26;19.10;83.20
24678;DHT22;12800;53.094;8.778;2023-08-06T08:38:03;19.10;82.90
24678;DHT22;12800;53.094;8.778;2023-08-06T08:40:32;19.00;82.50
24678;DHT22;12800;53.094;8.778;2023-08-06T08:42:58;18.90;82.40
24678;DHT22;12800;53.094;8.778;2023-08-06T08:45:26;18.80;82.80
24678;DHT22;12800;53.094;8.778;2023-08-06T08:47:54;18.80;83.00
24678;DHT22;12800;53.094;8.778;2023-08-06T08:50:20;18.80;83.00
24678;DHT22;12800;53.094;8.778;2023-08-06T08:52:46;18.80;83.30
24678;DHT22;12800;53.094;8.778;2023-08-06T08:55:14;18.80;83.30
24678;DHT22;12800;53.094;8.778;2023-08-06T08:57:40;18.80;83.50
24678;DHT22;12800;53.094;8.778;2023-08-06T09:00:06;18.80;83.40
24678;DHT22;12800;53.094;8.778;2023-08-06T09:02:33;18.80;83.10
24678;DHT22;12800;53.094;8.778;2023-08-06T09:05:00;18.80;83.30
24678;DHT22;12800;53.094;8.778;2023-08-06T09:07:32;18.80;83.80
24678;DHT22;12800;53.094;8.778;2023-08-06T09:10:02;18.90;83.60
24678;DHT22;12800;53.094;8.778;2023-08-06T09:12:29;19.00;83.40
24678;DHT22;12800;53.094;8.778;2023-08-06T09:14:54;19.00;83.40
24678;DHT22;12800;53.094;8.778;2023-08-06T09:17:20;19.10;83.20
24678;DHT22;12800;53.094;8.778;2023-08-06T09:19:47;19.10;83.10
24678;DHT22;12800;53.094;8.778;2023-08-06T09:22:14;19.20;83.30
24678;DHT22;12800;53.094;8.778;2023-08-06T09:24:43;19.20;83.10
24678;DHT22;12800;53.094;8.778;2023-08-06T09:27:12;19.20;82.90
24678;DHT22;12800;53.094;8.778;2023-08-06T09:29:42;19.20;82.90
24678;DHT22;12800;53.094;8.778;2023-08-06T09:32:08;19.20;83.20
24678;DHT22;12800;53.094;8.778;2023-08-06T09:34:34;19.20;83.00
24678;DHT22;12800;53.094;8.778;2023-08-06T09:37:00;19.20;82.90
24678;DHT22;12800;53.094;8.778;2023-08-06T09:39:29;19.20;82.90
24678;DHT22;12800;53.094;8.778;2023-08-06T09:41:59;19.20;82.80
24678;DHT22;12800;53.094;8.778;2023-08-06T09:44:27;19.20;82.60
24678;DHT22;12800;53.094;8.778;2023-08-06T09:47:00;19.30;82.40
24678;DHT22;12800;53.094;8.778;2023-08-06T09:49:28;19.30;82.10
24678;DHT22;12800;53.094;8.778;2023-08-06T09:51:54;19.30;81.70
24678;DHT22;12800;53.094;8.778;2023-08-06T09:54:24;19.40;81.40
24678;DHT22;12800;53.094;8.778;2023-08-06T09:56:54;19.40;81.30
24678;DHT22;12800;53.094;8.778;2023-08-06T09:59:20;19.40;81.20
24678;DHT22;12800;53.094;8.778;2023-08-06T10:01:46;19.40;81.30
24678;DHT22;12800;53.094;8.778;2023-08-06T10:04:14;19.40;81.20
24678;DHT22;12800;53.094;8.778;2023-08-06T10:06:42;19.50;81.50
24678;DHT22;12800;53.094;8.778;2023-08-06T10:09:08;19.50;81.30
24678;DHT22;12800;53.094;8.778;2023-08-06T10:11:36;19.50;80.80
24678;DHT22;12800;53.094;8.778;2023-08-06T10:14:26;19.60;80.90
24678;DHT22;12800;53.094;8.778;2023-08-06T10:16:53;19.70;81.10
24678;DHT22;12800;53.094;8.778;2023-08-06T10:19:20;19.70;81.00
24678;DHT22;12800;53.094;8.778;2023-08-06T10:22:09;19.80;81.00
24678;DHT22;12800;53.094;8.778;2023-08-06T10:24:50;19.90;80.60
24678;DHT22;12800;53.094;8.778;2023-08-06T10:27:32;20.00;80.50
24678;DHT22;12800;53.094;8.778;2023-08-06T10:30:23;20.10;80.30
24678;DHT22;12800;53.094;8.778;2023-08-06T10:32:51;20.10;80.00
24678;DHT22;12800;53.094;8.778;2023-08-06T10:35:42;20.20;79.90
24678;DHT22;12800;53.094;8.778;2023-08-06T10:38:21;20.20;79.60
24678;DHT22;12800;53.094;8.778;2023-08-06T10:41:07;20.30;78.70
24678;DHT22;12800;53.094;8.778;2023-08-06T10:43:36;20.40;78.10
24678;DHT22;12800;53.094;8.778;2023-08-06T10:46:10;20.50;78.30
24678;DHT22;12800;53.094;8.778;2023-08-06T10:48:38;20.60;78.10
24678;DHT22;12800;53.094;8.778;2023-08-06T10:51:07;20.70;77.90
24678;DHT22;12800;53.094;8.778;2023-08-06T10:53:33;20.70;77.70
24678;DHT22;12800;53.094;8.778;2023-08-06T10:55:59;20.80;77.50
24678;DHT22;12800;53.094;8.778;2023-08-06T10:58:26;20.90;77.00
24678;DHT22;12800;53.094;8.778;2023-08-06T11:00:52;20.90;76.70
24678;DHT22;12800;53.094;8.778;2023-08-06T11:03:17;21.00;76.90
24678;DHT22;12800;53.094;8.778;2023-08-06T11:05:49;21.10;76.80
24678;DHT22;12800;53.094;8.778;2023-08-06T11:08:24;21.20;76.40
24678;DHT22;12800;53.094;8.778;2023-08-06T11:10:50;21.20;75.20
24678;DHT22;12800;53.094;8.778;2023-08-06T11:13:20;21.30;75.70
24678;DHT22;12800;53.094;8.778;2023-08-06T11:15:46;21.40;75.70
24678;DHT22;12800;53.094;8.778;2023-08-06T11:18:11;21.50;74.80
24678;DHT22;12800;53.094;8.778;2023-08-06T11:20:38;21.60;74.30
24678;DHT22;12800;53.094;8.778;2023-08-06T11:23:05;21.70;74.00
24678;DHT22;12800;53.094;8.778;2023-08-06T11:25:31;21.80;72.90
24678;DHT22;12800;53.094;8.778;2023-08-06T11:27:56;21.80;72.30
24678;DHT22;12800;53.094;8.778;2023-08-06T11:30:22;21.80;72.20
24678;DHT22;12800;53.094;8.778;2023-08-06T11:32:48;21.90;71.30
24678;DHT22;12800;53.094;8.778;2023-08-06T11:35:15;21.90;70.00
24678;DHT22;12800;53.094;8.778;2023-08-06T11:37:45;21.90;69.90
24678;DHT22;12800;53.094;8.778;2023-08-06T11:40:11;21.90;70.20
24678;DHT22;12800;53.094;8.778;2023-08-06T11:42:38;22.00;70.20
24678;DHT22;12800;53.094;8.778;2023-08-06T11:45:04;22.00;68.70
24678;DHT22;12800;53.094;8.778;2023-08-06T11:47:30;22.10;68.30
24678;DHT22;12800;53.094;8.778;2023-08-06T11:49:56;22.10;68.10
24678;DHT22;12800;53.094;8.778;2023-08-06T11:52:25;22.20;67.80
24678;DHT22;12800;53.094;8.778;2023-08-06T11:55:05;22.30;68.10
24678;DHT22;12800;53.094;8.778;2023-08-06T11:57:38;22.30;67.10
24678;DHT22;12800;53.094;8.778;2023-08-06T12:00:13;22.40;65.80
24678;DHT22;12800;53.094;8.778;2023-08-06T12:02:43;22.50;65.90
24678;DHT22;12800;53.094;8.778;2023-08-06T12:05:13;22.60;65.80
24678;DHT22;12800;53.094;8.778;2023-08-06T12:07:44;22.70;65.80
24678;DHT22;12800;53.094;8.778;2023-08-06T12:10:11;22.80;66.00
24678;DHT22;12800;53.094;8.778;2023-08-06T12:12:37;23.00;66.10
24678;DHT22;12800;53.094;8.778;2023-08-06T12:15:04;23.10;65.70
24678;DHT22;12800;53.094;8.778;2023-08-06T12:17:31;23.10;65.00
24678;DHT22;12800;53.094;8.778;2023-08-06T12:19:57;23.10;65.00
24678;DHT22;12800;53.094;8.778;2023-08-06T12:22:23;23.10;65.10
24678;DHT22;12800;53.094;8.778;2023-08-06T12:24:48;23.10;64.50
24678;DHT22;12800;53.094;8.778;2023-08-06T12:27:14;23.10;64.20
24678;DHT22;12800;53.094;8.778;2023-08-06T12:29:46;23.00;63.70
24678;DHT22;12800;53.094;8.778;2023-08-06T12:32:12;23.00;63.60
24678;DHT22;12800;53.094;8.778;2023-08-06T12:34:39;23.00;64.00
24678;DHT22;12800;53.094;8.778;2023-08-06T12:37:05;22.90;64.10
24678;DHT22;12800;53.094;8.778;2023-08-06T12:39:31;22.80;65.10
24678;DHT22;12800;53.094;8.778;2023-08-06T12:41:58;22.80;64.70
24678;DHT22;12800;53.094;8.778;2023-08-06T12:44:24;22.80;64.60
24678;DHT22;12800;53.094;8.778;2023-08-06T12:46:51;22.80;64.60
24678;DHT22;12800;53.094;8.778;2023-08-06T12:49:17;22.80;64.90
24678;DHT22;12800;53.094;8.778;2023-08-06T12:51:43;22.80;64.90
24678;DHT22;12800;53.094;8.778;2023-08-06T12:54:09;22.80;65.20
24678;DHT22;12800;53.094;8.778;2023-08-06T12:56:34;22.80;65.40
24678;DHT22;12800;53.094;8.778;2023-08-06T12:59:00;22.80;65.80
24678;DHT22;12800;53.094;8.778;2023-08-06T13:01:26;22.80;66.30
24678;DHT22;12800;53.094;8.778;2023-08-06T13:03:51;22.80;65.80
24678;DHT22;12800;53.094;8.778;2023-08-06T13:06:17;22.70;65.70
24678;DHT22;12800;53.094;8.778;2023-08-06T13:08:42;22.60;65.50
24678;DHT22;12800;53.094;8.778;2023-08-06T13:11:11;22.60;65.80
24678;DHT22;12800;53.094;8.778;2023-08-06T13:13:38;22.60;66.30
24678;DHT22;12800;53.094;8.778;2023-08-06T13:16:04;22.60;66.40
24678;DHT22;12800;53.094;8.778;2023-08-06T13:18:30;22.70;66.40
24678;DHT22;12800;53.094;8.778;2023-08-06T13:20:56;22.70;66.00
24678;DHT22;12800;53.094;8.778;2023-08-06T13:23:22;22.70;66.00
24678;DHT22;12800;53.094;8.778;2023-08-06T13:25:47;22.80;66.10
24678;DHT22;12800;53.094;8.778;2023-08-06T13:28:13;22.80;65.90
24678;DHT22;12800;53.094;8.778;2023-08-06T13:30:42;22.90;65.70
24678;DHT22;12800;53.094;8.778;2023-08-06T13:33:08;23.00;65.40
24678;DHT22;12800;53.094;8.778;2023-08-06T13:35:34;23.00;65.20
24678;DHT22;12800;53.094;8.778;2023-08-06T13:38:00;22.90;64.90
24678;DHT22;12800;53.094;8.778;2023-08-06T13:40:28;22.90;65.40
24678;DHT22;12800;53.094;8.778;2023-08-06T13:42:55;23.00;65.50
24678;DHT22;12800;53.094;8.778;2023-08-06T13:45:21;23.00;65.40
24678;DHT22;12800;53.094;8.778;2023-08-06T13:47:46;23.00;65.30
24678;DHT22;12800;53.094;8.778;2023-08-06T13:50:12;23.10;64.80
24678;DHT22;12800;53.094;8.778;2023-08-06T13:52:38;23.00;64.50
24678;DHT22;12800;53.094;8.778;2023-08-06T13:55:05;23.10;64.20
24678;DHT22;12800;53.094;8.778;2023-08-06T13:57:31;23.10;63.90
24678;DHT22;12800;53.094;8.778;2023-08-06T13:59:56;23.10;63.60
24678;DHT22;12800;53.094;8.778;2023-08-06T14:02:22;23.10;62.80
24678;DHT22;12800;53.094;8.778;2023-08-06T14:04:48;23.10;62.20
24678;DHT22;12800;53.094;8.778;2023-08-06T14:07:14;23.30;62.20
24678;DHT22;12800;53.094;8.778;2023-08-06T14:09:39;23.40;62.40
24678;DHT22;12800;53.094;8.778;2023-08-06T14:12:06;23.60;62.90
24678;DHT22;12800;53.094;8.778;2023-08-06T14:14:31;23.80;62.80
24678;DHT22;12800;53.094;8.778;2023-08-06T14:16:57;24.00;62.50
24678;DHT22;12800;53.094;8.778;2023-08-06T14:19:23;24.20;62.00
24678;DHT22;12800;53.094;8.778;2023-08-06T14:21:49;24.20;61.70
24678;DHT22;12800;53.094;8.778;2023-08-06T14:24:15;24.20;61.80
24678;DHT22;12800;53.094;8.778;2023-08-06T14:26:40;24.20;61.40
24678;DHT22;12800;53.094;8.778;2023-08-06T14:29:06;24.30;61.60
24678;DHT22;12800;53.094;8.778;2023-08-06T14:31:32;24.40;61.80
24678;DHT22;12800;53.094;8.778;2023-08-06T14:33:57;24.60;60.80
24678;DHT22;12800;53.094;8.778;2023-08-06T14:36:23;24.70;60.80
24678;DHT22;12800;53.094;8.778;2023-08-06T14:38:49;24.80;59.90
24678;DHT22;12800;53.094;8.778;2023-08-06T14:41:14;25.00;59.40
24678;DHT22;12800;53.094;8.778;2023-08-06T14:43:40;25.10;59.00
24678;DHT22;12800;53.094;8.778;2023-08-06T14:46:06;25.20;58.80
24678;DHT22;12800;53.094;8.778;2023-08-06T14:48:32;25.40;58.90
24678;DHT22;12800;53.094;8.778;2023-08-06T14:50:58;25.50;58.90
24678;DHT22;12800;53.094;8.778;2023-08-06T14:53:24;25.60;58.40
24678;DHT22;12800;53.094;8.778;2023-08-06T14:55:49;25.60;57.70
24678;DHT22;12800;53.094;8.778;2023-08-06T14:58:15;25.40;57.20
24678;DHT22;12800;53.094;8.778;2023-08-06T15:00:41;25.30;57.50
24678;DHT22;12800;53.094;8.778;2023-08-06T15:03:07;25.20;58.10
24678;DHT22;12800;53.094;8.778;2023-08-06T15:05:32;25.20;57.70
24678;DHT22;12800;53.094;8.778;2023-08-06T15:07:59;25.20;57.90
24678;DHT22;12800;53.094;8.778;2023-08-06T15:10:24;25.20;57.80
24678;DHT22;12800;53.094;8.778;2023-08-06T15:12:50;25.20;57.40
24678;DHT22;12800;53.094;8.778;2023-08-06T15:15:16;25.10;57.40
24678;DHT22;12800;53.094;8.778;2023-08-06T15:17:42;25.00;57.50
24678;DHT22;12800;53.094;8.778;2023-08-06T15:20:08;24.80;57.50
24678;DHT22;12800;53.094;8.778;2023-08-06T15:22:34;24.70;58.20
24678;DHT22;12800;53.094;8.778;2023-08-06T15:25:00;24.70;58.80
24678;DHT22;12800;53.094;8.778;2023-08-06T15:27:26;24.60;58.90
24678;DHT22;12800;53.094;8.778;2023-08-06T15:29:52;24.60;59.20